sensor_id;sensor_type;location;lat;lon;timestamp;temperature;humidity
19359;DHT22;9815;52.334;20.890;2023-12-20T00:01:46;6.10;99.90
19359;DHT22;9815;52.334;20.890;2023-12-20T00:04:16;6.10;99.90
19359;DHT22;9815;52.334;20.890;2023-12-20T00:06:44;6.10;99.90
19359;DHT22;9815;52.334;20.890;2023-12-20T00:09:13;6.10;99.90
19359;DHT22;9815;52.334;20.890;2023-12-20T00:11:41;6.10;99.90
19359;DHT22;9815;52.334;20.890;2023-12-20T00:14:10;6.10;99.90
19359;DHT22;9815;52.334;20.890;2023-12-20T00:16:38;6.10;99.90
19359;DHT22;9815;52.334;20.890;2023-12-20T00:19:06;6.10;99.90
19359;DHT22;9815;52.334;20.890;2023-12-20T00:21:37;6.10;99.90
19359;DHT22;9815;52.334;20.890;2023-12-20T00:24:06;6.10;99.90
19359;DHT22;9815;52.334;20.890;2023-12-20T00:26:34;6.10;99.90
19359;DHT22;9815;52.334;20.890;2023-12-20T00:29:02;6.10;99.90
19359;DHT22;9815;52.334;20.890;2023-12-20T00:31:31;6.10;99.90
19359;DHT22;9815;52.334;20.890;2023-12-20T00:33:59;6.10;99.90
19359;DHT22;9815;52.334;20.890;2023-12-20T00:36:28;6.10;99.90
19359;DHT22;9815;52.334;20.890;2023-12-20T00:38:58;6.10;99.90
19359;DHT22;9815;52.334;20.890;2023-12-20T00:41:26;6.10;99.90
19359;DHT22;9815;52.334;20.890;2023-12-20T00:43:55;6.10;99.90
19359;DHT22;9815;52.334;20.890;2023-12-20T00:46:23;6.10;99.90
19359;DHT22;9815;52.334;20.890;2023-12-20T00:48:51;6.10;99.90
19359;DHT22;9815;52.334;20.890;2023-12-20T00:51:20;6.10;99.90
19359;DHT22;9815;52.334;20.890;2023-12-20T00:53:50;6.10;99.90
19359;DHT22;9815;52.334;20.890;2023-12-20T00:56:23;6.10;99.90
19359;DHT22;9815;52.334;20.890;2023-12-20T00:58:51;6.10;99.90
19359;DHT22;9815;52.334;20.890;2023-12-20T01:01:20;6.10;99.90
19359;DHT22;9815;52.334;20.890;2023-12-20T01:03:49;6.10;99.90
19359;DHT22;9815;52.334;20.890;2023-12-20T01:06:18;6.10;99.90
19359;DHT22;9815;52.334;20.890;2023-12-20T01:08:47;6.10;99.90
19359;DHT22;9815;52.334;20.890;2023-12-20T01:11:15;6.10;99.90
19359;DHT22;9815;52.334;20.890;2023-12-20T01:13:45;6.10;99.90
19359;DHT22;9815;52.334;20.890;2023-12-20T01:16:13;6.10;99.90
19359;DHT22;9815;52.334;20.890;2023-12-20T01:18:42;6.10;99.90
19359;DHT22;9815;52.334;20.890;2023-12-20T01:21:10;6.10;99.90
19359;DHT22;9815;52.334;20.890;2023-12-20T01:23:39;6.10;99.90
19359;DHT22;9815;52.334;20.890;2023-12-20T01:26:07;6.10;99.90
19359;DHT22;9815;52.334;20.890;2023-12-20T01:28:36;6.10;99.90
19359;DHT22;9815;52.334;20.890;2023-12-20T01:31:06;6.10;99.90
19359;DHT22;9815;52.334;20.890;2023-12-20T01:33:34;6.10;99.90
19359;DHT22;9815;52.334;20.890;2023-12-20T01:36:04;6.10;99.90
19359;DHT22;9815;52.334;20.890;2023-12-20T01:38:32;6.10;99.90
19359;DHT22;9815;52.334;20.890;2023-12-20T01:41:01;6.10;99.90
19359;DHT22;9815;52.334;20.890;2023-12-20T01:43:29;6.10;99.90
19359;DHT22;9815;52.334;20.890;2023-12-20T01:46:15;6.10;99.90
19359;DHT22;9815;52.334;20.890;2023-12-20T01:48:43;6.10;99.90
19359;DHT22;9815;52.334;20.890;2023-12-20T01:51:12;6.10;99.90
19359;DHT22;9815;52.334;20.890;2023-12-20T01:53:41;6.10;99.90
19359;DHT22;9815;52.334;20.890;2023-12-20T01:56:11;6.10;99.90
19359;DHT22;9815;52.334;20.890;2023-12-20T01:58:46;6.10;99.90
19359;DHT22;9815;52.334;20.890;2023-12-20T02:01:17;6.10;99.90
19359;DHT22;9815;52.334;20.890;2023-12-20T02:03:46;6.10;99.90
19359;DHT22;9815;52.334;20.890;2023-12-20T02:06:15;6.10;99.90
19359;DHT22;9815;52.334;20.890;2023-12-20T02:08:44;6.10;99.90
19359;DHT22;9815;52.334;20.890;2023-12-20T02:11:13;6.10;99.90
19359;DHT22;9815;52.334;20.890;2023-12-20T02:13:41;6.10;99.90
19359;DHT22;9815;52.334;20.890;2023-12-20T02:16:09;6.10;99.90
19359;DHT22;9815;52.334;20.890;2023-12-20T02:18:39;6.10;99.90
19359;DHT22;9815;52.334;20.890;2023-12-20T02:21:09;6.10;99.90
19359;DHT22;9815;52.334;20.890;2023-12-20T02:23:39;6.10;99.90
19359;DHT22;9815;52.334;20.890;2023-12-20T02:26:07;6.10;99.90
19359;DHT22;9815;52.334;20.890;2023-12-20T02:28:36;6.10;99.90
19359;DHT22;9815;52.334;20.890;2023-12-20T02:31:04;6.10;99.90
19359;DHT22;9815;52.334;20.890;2023-12-20T02:33:33;6.10;99.90
19359;DHT22;9815;52.334;20.890;2023-12-20T02:36:01;6.10;99.90
19359;DHT22;9815;52.334;20.890;2023-12-20T02:38:29;6.10;99.90
19359;DHT22;9815;52.334;20.890;2023-12-20T02:41:00;6.00;99.90
19359;DHT22;9815;52.334;20.890;2023-12-20T02:43:28;6.10;99.90
19359;DHT22;9815;52.334;20.890;2023-12-20T02:45:56;6.00;99.90
19359;DHT22;9815;52.334;20.890;2023-12-20T02:48:25;6.00;99.90
19359;DHT22;9815;52.334;20.890;2023-12-20T02:50:54;6.00;99.90
19359;DHT22;9815;52.334;20.890;2023-12-20T02:53:22;6.10;99.90
19359;DHT22;9815;52.334;20.890;2023-12-20T02:55:51;6.10;99.90
19359;DHT22;9815;52.334;20.890;2023-12-20T02:58:21;6.00;99.90
19359;DHT22;9815;52.334;20.890;2023-12-20T03:00:49;6.00;99.90
19359;DHT22;9815;52.334;20.890;2023-12-20T03:03:18;6.00;99.90
19359;DHT22;9815;52.334;20.890;2023-12-20T03:05:46;6.00;99.90
19359;DHT22;9815;52.334;20.890;2023-12-20T03:08:15;6.00;99.90
19359;DHT22;9815;52.334;20.890;2023-12-20T03:10:43;6.00;99.90
19359;DHT22;9815;52.334;20.890;2023-12-20T03:13:12;6.00;99.90
19359;DHT22;9815;52.334;20.890;2023-12-20T03:15:41;6.10;99.90
19359;DHT22;9815;52.334;20.890;2023-12-20T03:18:10;6.10;99.90
19359;DHT22;9815;52.334;20.890;2023-12-20T03:20:38;6.10;99.90
19359;DHT22;9815;52.334;20.890;2023-12-20T03:23:08;6.00;99.90
19359;DHT22;9815;52.334;20.890;2023-12-20T03:25:36;6.00;99.90
19359;DHT22;9815;52.334;20.890;2023-12-20T03:28:05;6.00;99.90
19359;DHT22;9815;52.334;20.890;2023-12-20T03:30:33;6.00;99.90
19359;DHT22;9815;52.334;20.890;2023-12-20T03:33:03;6.10;99.90
19359;DHT22;9815;52.334;20.890;2023-12-20T03:35:31;6.10;99.90
19359;DHT22;9815;52.334;20.890;2023-12-20T03:38:00;6.10;99.90
19359;DHT22;9815;52.334;20.890;2023-12-20T03:40:28;6.00;99.90
19359;DHT22;9815;52.334;20.890;2023-12-20T03:42:57;6.10;99.90
19359;DHT22;9815;52.334;20.890;2023-12-20T03:45:25;6.00;99.90
19359;DHT22;9815;52.334;20.890;2023-12-20T03:47:53;6.00;99.90
19359;DHT22;9815;52.334;20.890;2023-12-20T03:50:25;6.10;99.90
19359;DHT22;9815;52.334;20.890;2023-12-20T03:52:54;6.10;99.90
19359;DHT22;9815;52.334;20.890;2023-12-20T03:55:22;6.00;99.90
19359;DHT22;9815;52.334;20.890;2023-12-20T03:57:50;6.10;99.90
19359;DHT22;9815;52.334;20.890;2023-12-20T04:00:19;6.00;99.90
19359;DHT22;9815;52.334;20.890;2023-12-20T04:02:47;6.10;99.90
19359;DHT22;9815;52.334;20.890;2023-12-20T04:05:16;6.00;99.90
19359;DHT22;9815;52.334;20.890;2023-12-20T04:07:46;6.00;99.90
19359;DHT22;9815;52.334;20.890;2023-12-20T04:10:15;6.00;99.90
19359;DHT22;9815;52.334;20.890;2023-12-20T04:12:43;6.00;99.90
19359;DHT22;9815;52.334;20.890;2023-12-20T04:15:12;6.00;99.90
19359;DHT22;9815;52.334;20.890;2023-12-20T04:17:40;6.00;99.90
19359;DHT22;9815;52.334;20.890;2023-12-20T04:20:09;6.00;99.90
19359;DHT22;9815;52.334;20.890;2023-12-20T04:22:38;6.00;99.90
19359;DHT22;9815;52.334;20.890;2023-12-20T04:25:08;6.00;99.90
19359;DHT22;9815;52.334;20.890;2023-12-20T04:27:37;6.00;99.90
19359;DHT22;9815;52.334;20.890;2023-12-20T04:30:07;6.00;99.90
19359;DHT22;9815;52.334;20.890;2023-12-20T04:32:36;6.00;99.90
19359;DHT22;9815;52.334;20.890;2023-12-20T04:35:05;6.00;99.90
19359;DHT22;9815;52.334;20.890;2023-12-20T04:37:34;6.00;99.90
19359;DHT22;9815;52.334;20.890;2023-12-20T04:40:03;6.00;99.90
19359;DHT22;9815;52.334;20.890;2023-12-20T04:42:34;6.00;99.90
19359;DHT22;9815;52.334;20.890;2023-12-20T04:45:02;6.00;99.90
19359;DHT22;9815;52.334;20.890;2023-12-20T04:47:30;6.00;99.90
19359;DHT22;9815;52.334;20.890;2023-12-20T04:49:59;5.90;99.90
19359;DHT22;9815;52.334;20.890;2023-12-20T04:52:27;6.00;99.90
19359;DHT22;9815;52.334;20.890;2023-12-20T04:54:56;5.90;99.90
19359;DHT22;9815;52.334;20.890;2023-12-20T04:57:24;5.90;99.90
19359;DHT22;9815;52.334;20.890;2023-12-20T04:59:54;5.90;99.90
19359;DHT22;9815;52.334;20.890;2023-12-20T05:02:23;5.90;99.90
19359;DHT22;9815;52.334;20.890;2023-12-20T05:04:51;5.90;99.90
19359;DHT22;9815;52.334;20.890;2023-12-20T05:07:22;5.90;99.90
19359;DHT22;9815;52.334;20.890;2023-12-20T05:09:50;5.90;99.90
19359;DHT22;9815;52.334;20.890;2023-12-20T05:12:18;5.90;99.90
19359;DHT22;9815;52.334;20.890;2023-12-20T05:14:47;5.90;99.90
19359;DHT22;9815;52.334;20.890;2023-12-20T05:17:16;5.90;99.90
19359;DHT22;9815;52.334;20.890;2023-12-20T05:19:45;5.90;99.90
19359;DHT22;9815;52.334;20.890;2023-12-20T05:22:13;5.90;99.90
19359;DHT22;9815;52.334;20.890;2023-12-20T05:24:42;5.90;99.90
19359;DHT22;9815;52.334;20.890;2023-12-20T05:27:10;5.90;99.90
19359;DHT22;9815;52.334;20.890;2023-12-20T05:29:39;5.90;99.90
19359;DHT22;9815;52.334;20.890;2023-12-20T05:32:07;5.90;99.90
19359;DHT22;9815;52.334;20.890;2023-12-20T05:34:37;5.90;99.90
19359;DHT22;9815;52.334;20.890;2023-12-20T05:37:06;5.90;99.90
19359;DHT22;9815;52.334;20.890;2023-12-20T05:39:34;5.90;99.90
19359;DHT22;9815;52.334;20.890;2023-12-20T05:42:02;5.90;99.90
19359;DHT22;9815;52.334;20.890;2023-12-20T05:44:31;5.90;99.90
19359;DHT22;9815;52.334;20.890;2023-12-20T05:46:59;5.90;99.90
19359;DHT22;9815;52.334;20.890;2023-12-20T05:49:27;5.90;99.90
19359;DHT22;9815;52.334;20.890;2023-12-20T05:51:58;5.90;99.90
19359;DHT22;9815;52.334;20.890;2023-12-20T05:54:26;5.90;99.90
19359;DHT22;9815;52.334;20.890;2023-12-20T05:56:54;5.90;99.90
19359;DHT22;9815;52.334;20.890;2023-12-20T05:59:23;5.90;99.90
19359;DHT22;9815;52.334;20.890;2023-12-20T06:01:51;5.90;99.90
19359;DHT22;9815;52.334;20.890;2023-12-20T06:04:20;5.90;99.90
19359;DHT22;9815;52.334;20.890;2023-12-20T06:06:50;5.80;99.90
19359;DHT22;9815;52.334;20.890;2023-12-20T06:09:20;5.90;99.90
19359;DHT22;9815;52.334;20.890;2023-12-20T06:11:48;5.90;99.90
19359;DHT22;9815;52.334;20.890;2023-12-20T06:14:16;5.90;99.90
19359;DHT22;9815;52.334;20.890;2023-12-20T06:16:46;5.90;99.90
19359;DHT22;9815;52.334;20.890;2023-12-20T06:19:14;5.90;99.90
19359;DHT22;9815;52.334;20.890;2023-12-20T06:21:43;5.90;99.90
19359;DHT22;9815;52.334;20.890;2023-12-20T06:24:11;5.90;99.90
19359;DHT22;9815;52.334;20.890;2023-12-20T06:26:41;5.80;99.90
19359;DHT22;9815;52.334;20.890;2023-12-20T06:29:09;5.90;99.90
19359;DHT22;9815;52.334;20.890;2023-12-20T06:31:38;5.90;99.90
19359;DHT22;9815;52.334;20.890;2023-12-20T06:34:06;5.90;99.90
19359;DHT22;9815;52.334;20.890;2023-12-20T06:36:35;5.90;99.90
19359;DHT22;9815;52.334;20.890;2023-12-20T06:39:03;5.90;99.90
19359;DHT22;9815;52.334;20.890;2023-12-20T06:41:32;5.90;99.90
19359;DHT22;9815;52.334;20.890;2023-12-20T06:44:01;5.90;99.90
19359;DHT22;9815;52.334;20.890;2023-12-20T06:46:30;5.90;99.90
19359;DHT22;9815;52.334;20.890;2023-12-20T06:48:58;5.90;99.90
19359;DHT22;9815;52.334;20.890;2023-12-20T06:51:27;5.90;99.90
19359;DHT22;9815;52.334;20.890;2023-12-20T06:53:55;5.90;99.90
19359;DHT22;9815;52.334;20.890;2023-12-20T06:56:24;5.90;99.90
19359;DHT22;9815;52.334;20.890;2023-12-20T06:58:53;5.90;99.90
19359;DHT22;9815;52.334;20.890;2023-12-20T07:01:22;5.90;99.90
19359;DHT22;9815;52.334;20.890;2023-12-20T07:03:51;5.90;99.90
19359;DHT22;9815;52.334;20.890;2023-12-20T07:06:20;5.90;99.90
19359;DHT22;9815;52.334;20.890;2023-12-20T07:08:51;5.90;99.90
19359;DHT22;9815;52.334;20.890;2023-12-20T07:11:20;5.90;99.90
19359;DHT22;9815;52.334;20.890;2023-12-20T07:13:48;5.90;99.90
19359;DHT22;9815;52.334;20.890;2023-12-20T07:16:17;5.90;99.90
19359;DHT22;9815;52.334;20.890;2023-12-20T07:18:47;5.90;99.90
19359;DHT22;9815;52.334;20.890;2023-12-20T07:21:15;5.90;99.90
19359;DHT22;9815;52.334;20.890;2023-12-20T07:23:43;5.90;99.90
19359;DHT22;9815;52.334;20.890;2023-12-20T07:26:12;5.90;99.90
19359;DHT22;9815;52.334;20.890;2023-12-20T07:28:40;6.00;99.90
19359;DHT22;9815;52.334;20.890;2023-12-20T07:31:09;5.90;99.90
19359;DHT22;9815;52.334;20.890;2023-12-20T07:33:37;5.90;99.90
19359;DHT22;9815;52.334;20.890;2023-12-20T07:36:08;6.00;99.90
19359;DHT22;9815;52.334;20.890;2023-12-20T07:38:36;6.00;99.90
19359;DHT22;9815;52.334;20.890;2023-12-20T07:41:04;6.00;99.90
19359;DHT22;9815;52.334;20.890;2023-12-20T07:43:33;6.00;99.90
19359;DHT22;9815;52.334;20.890;2023-12-20T07:46:04;6.00;99.90
19359;DHT22;9815;52.334;20.890;2023-12-20T07:48:34;6.00;99.90
19359;DHT22;9815;52.334;20.890;2023-12-20T07:51:03;6.00;99.90
19359;DHT22;9815;52.334;20.890;2023-12-20T07:53:37;6.00;99.90
19359;DHT22;9815;52.334;20.890;2023-12-20T07:56:14;6.00;99.90
19359;DHT22;9815;52.334;20.890;2023-12-20T07:58:43;6.00;99.90
19359;DHT22;9815;52.334;20.890;2023-12-20T08:01:19;6.00;99.90
19359;DHT22;9815;52.334;20.890;2023-12-20T08:03:49;6.10;99.90
19359;DHT22;9815;52.334;20.890;2023-12-20T08:06:18;6.10;99.90
19359;DHT22;9815;52.334;20.890;2023-12-20T08:08:48;6.00;99.90
19359;DHT22;9815;52.334;20.890;2023-12-20T08:11:28;6.00;99.90
19359;DHT22;9815;52.334;20.890;2023-12-20T08:13:56;6.10;99.90
19359;DHT22;9815;52.334;20.890;2023-12-20T08:16:25;6.10;99.90
19359;DHT22;9815;52.334;20.890;2023-12-20T08:18:54;6.10;99.90
19359;DHT22;9815;52.334;20.890;2023-12-20T08:21:22;6.10;99.90
19359;DHT22;9815;52.334;20.890;2023-12-20T08:23:52;6.10;99.90
19359;DHT22;9815;52.334;20.890;2023-12-20T08:26:20;6.10;99.90
19359;DHT22;9815;52.334;20.890;2023-12-20T08:28:48;6.10;99.90
19359;DHT22;9815;52.334;20.890;2023-12-20T08:31:17;6.10;99.90
19359;DHT22;9815;52.334;20.890;2023-12-20T08:33:48;6.10;99.90
19359;DHT22;9815;52.334;20.890;2023-12-20T08:36:16;6.10;99.90
19359;DHT22;9815;52.334;20.890;2023-12-20T08:38:45;6.20;99.90
19359;DHT22;9815;52.334;20.890;2023-12-20T08:41:15;6.20;99.90
19359;DHT22;9815;52.334;20.890;2023-12-20T08:43:44;6.10;99.90
19359;DHT22;9815;52.334;20.890;2023-12-20T08:46:14;6.20;99.90
19359;DHT22;9815;52.334;20.890;2023-12-20T08:48:42;6.10;99.90
19359;DHT22;9815;52.334;20.890;2023-12-20T08:51:13;6.10;99.90
19359;DHT22;9815;52.334;20.890;2023-12-20T08:53:41;6.10;99.90
19359;DHT22;9815;52.334;20.890;2023-12-20T08:56:12;6.20;99.90
19359;DHT22;9815;52.334;20.890;2023-12-20T08:58:42;6.20;99.90
19359;DHT22;9815;52.334;20.890;2023-12-20T09:01:11;6.20;99.90
19359;DHT22;9815;52.334;20.890;2023-12-20T09:03:40;6.20;99.90
19359;DHT22;9815;52.334;20.890;2023-12-20T09:06:08;6.20;99.90
19359;DHT22;9815;52.334;20.890;2023-12-20T09:08:37;6.20;99.90
19359;DHT22;9815;52.334;20.890;2023-12-20T09:11:06;6.10;99.90
19359;DHT22;9815;52.334;20.890;2023-12-20T09:13:35;6.20;99.90
19359;DHT22;9815;52.334;20.890;2023-12-20T09:16:06;6.20;99.90
19359;DHT22;9815;52.334;20.890;2023-12-20T09:18:34;6.20;99.90
19359;DHT22;9815;52.334;20.890;2023-12-20T09:21:03;6.20;99.90
19359;DHT22;9815;52.334;20.890;2023-12-20T09:23:31;6.20;99.90
19359;DHT22;9815;52.334;20.890;2023-12-20T09:26:00;6.20;99.90
19359;DHT22;9815;52.334;20.890;2023-12-20T09:28:28;6.20;99.90
19359;DHT22;9815;52.334;20.890;2023-12-20T09:30:57;6.20;99.90
19359;DHT22;9815;52.334;20.890;2023-12-20T09:33:27;6.20;99.90
19359;DHT22;9815;52.334;20.890;2023-12-20T09:35:55;6.20;99.90
19359;DHT22;9815;52.334;20.890;2023-12-20T09:38:24;6.20;99.90
19359;DHT22;9815;52.334;20.890;2023-12-20T09:40:52;6.20;99.90
19359;DHT22;9815;52.334;20.890;2023-12-20T09:43:24;6.20;99.90
19359;DHT22;9815;52.334;20.890;2023-12-20T09:45:58;6.20;99.90
19359;DHT22;9815;52.334;20.890;2023-12-20T09:48:31;6.20;99.90
19359;DHT22;9815;52.334;20.890;2023-12-20T09:51:00;6.20;99.90
19359;DHT22;9815;52.334;20.890;2023-12-20T09:53:29;6.20;99.90
19359;DHT22;9815;52.334;20.890;2023-12-20T09:55:59;6.20;99.90
19359;DHT22;9815;52.334;20.890;2023-12-20T09:58:28;6.20;99.90
19359;DHT22;9815;52.334;20.890;2023-12-20T10:00:57;6.20;99.90
19359;DHT22;9815;52.334;20.890;2023-12-20T10:03:26;6.20;99.90
19359;DHT22;9815;52.334;20.890;2023-12-20T10:05:57;6.20;99.90
19359;DHT22;9815;52.334;20.890;2023-12-20T10:08:26;6.20;99.90
19359;DHT22;9815;52.334;20.890;2023-12-20T10:10:55;6.20;99.90
19359;DHT22;9815;52.334;20.890;2023-12-20T10:13:25;6.20;99.90
19359;DHT22;9815;52.334;20.890;2023-12-20T10:15:55;6.20;99.90
19359;DHT22;9815;52.334;20.890;2023-12-20T10:18:24;6.20;99.90
19359;DHT22;9815;52.334;20.890;2023-12-20T10:21:07;6.20;99.90
19359;DHT22;9815;52.334;20.890;2023-12-20T10:23:37;6.20;99.90
19359;DHT22;9815;52.334;20.890;2023-12-20T10:26:07;6.20;99.90
19359;DHT22;9815;52.334;20.890;2023-12-20T10:28:35;6.20;99.90
19359;DHT22;9815;52.334;20.890;2023-12-20T10:31:04;6.20;99.90
19359;DHT22;9815;52.334;20.890;2023-12-20T10:33:33;6.20;99.90
19359;DHT22;9815;52.334;20.890;2023-12-20T10:36:02;6.20;99.90
19359;DHT22;9815;52.334;20.890;2023-12-20T10:38:32;6.20;99.90
19359;DHT22;9815;52.334;20.890;2023-12-20T10:41:01;6.20;99.90
19359;DHT22;9815;52.334;20.890;2023-12-20T10:43:33;6.20;99.90
19359;DHT22;9815;52.334;20.890;2023-12-20T10:46:03;6.20;99.90
19359;DHT22;9815;52.334;20.890;2023-12-20T10:48:32;6.20;99.90
19359;DHT22;9815;52.334;20.890;2023-12-20T10:51:01;6.20;99.90
19359;DHT22;9815;52.334;20.890;2023-12-20T10:53:32;6.20;99.90
19359;DHT22;9815;52.334;20.890;2023-12-20T10:56:04;6.20;99.90
19359;DHT22;9815;52.334;20.890;2023-12-20T10:58:34;6.20;99.90
19359;DHT22;9815;52.334;20.890;2023-12-20T11:01:04;6.20;99.90
19359;DHT22;9815;52.334;20.890;2023-12-20T11:03:35;6.20;99.90
19359;DHT22;9815;52.334;20.890;2023-12-20T11:06:10;6.20;99.90
19359;DHT22;9815;52.334;20.890;2023-12-20T11:08:46;6.20;99.90
19359;DHT22;9815;52.334;20.890;2023-12-20T11:11:23;6.20;99.90
19359;DHT22;9815;52.334;20.890;2023-12-20T11:13:58;6.00;99.90
19359;DHT22;9815;52.334;20.890;2023-12-20T11:16:27;6.20;99.90
19359;DHT22;9815;52.334;20.890;2023-12-20T11:19:11;6.20;99.90
19359;DHT22;9815;52.334;20.890;2023-12-20T11:21:41;6.20;99.90
19359;DHT22;9815;52.334;20.890;2023-12-20T11:24:12;6.30;99.90
19359;DHT22;9815;52.334;20.890;2023-12-20T11:26:46;6.20;99.90
19359;DHT22;9815;52.334;20.890;2023-12-20T11:29:31;6.30;99.90
19359;DHT22;9815;52.334;20.890;2023-12-20T11:32:27;6.30;99.90
19359;DHT22;9815;52.334;20.890;2023-12-20T11:34:58;6.30;99.90
19359;DHT22;9815;52.334;20.890;2023-12-20T11:37:29;6.30;99.90
19359;DHT22;9815;52.334;20.890;2023-12-20T11:40:04;6.30;99.90
19359;DHT22;9815;52.334;20.890;2023-12-20T11:42:38;6.30;99.90
19359;DHT22;9815;52.334;20.890;2023-12-20T11:45:09;6.30;99.90
19359;DHT22;9815;52.334;20.890;2023-12-20T11:47:38;6.30;99.90
19359;DHT22;9815;52.334;20.890;2023-12-20T11:50:07;6.30;99.90
19359;DHT22;9815;52.334;20.890;2023-12-20T11:52:35;6.30;99.90
19359;DHT22;9815;52.334;20.890;2023-12-20T11:55:06;6.30;99.90
19359;DHT22;9815;52.334;20.890;2023-12-20T11:57:36;6.30;99.90
19359;DHT22;9815;52.334;20.890;2023-12-20T12:00:06;6.30;99.90
19359;DHT22;9815;52.334;20.890;2023-12-20T12:02:40;6.30;99.90
19359;DHT22;9815;52.334;20.890;2023-12-20T12:05:12;6.30;99.90
19359;DHT22;9815;52.334;20.890;2023-12-20T12:07:40;6.20;99.90
19359;DHT22;9815;52.334;20.890;2023-12-20T12:10:11;6.20;99.90
19359;DHT22;9815;52.334;20.890;2023-12-20T12:12:39;6.20;99.90
19359;DHT22;9815;52.334;20.890;2023-12-20T12:15:08;6.20;99.90
19359;DHT22;9815;52.334;20.890;2023-12-20T12:17:37;6.20;99.90
19359;DHT22;9815;52.334;20.890;2023-12-20T12:20:07;6.20;99.90
19359;DHT22;9815;52.334;20.890;2023-12-20T12:22:37;6.20;99.90
19359;DHT22;9815;52.334;20.890;2023-12-20T12:25:13;6.10;99.90
19359;DHT22;9815;52.334;20.890;2023-12-20T12:27:43;6.10;99.90
19359;DHT22;9815;52.334;20.890;2023-12-20T12:30:12;6.10;99.90
19359;DHT22;9815;52.334;20.890;2023-12-20T12:32:40;6.10;99.90
19359;DHT22;9815;52.334;20.890;2023-12-20T12:35:09;6.10;99.90
19359;DHT22;9815;52.334;20.890;2023-12-20T12:37:39;6.10;99.90
19359;DHT22;9815;52.334;20.890;2023-12-20T12:40:10;6.10;99.90
19359;DHT22;9815;52.334;20.890;2023-12-20T12:42:41;6.10;99.90
19359;DHT22;9815;52.334;20.890;2023-12-20T12:45:11;6.10;99.90
19359;DHT22;9815;52.334;20.890;2023-12-20T12:47:39;6.10;99.90
19359;DHT22;9815;52.334;20.890;2023-12-20T12:50:08;6.10;99.90
19359;DHT22;9815;52.334;20.890;2023-12-20T12:52:37;6.00;99.90
19359;DHT22;9815;52.334;20.890;2023-12-20T12:55:06;6.00;99.90
19359;DHT22;9815;52.334;20.890;2023-12-20T12:57:35;6.00;99.90
19359;DHT22;9815;52.334;20.890;2023-12-20T13:00:06;5.90;99.90
19359;DHT22;9815;52.334;20.890;2023-12-20T13:02:36;5.90;99.90
19359;DHT22;9815;52.334;20.890;2023-12-20T13:05:09;5.80;99.90
19359;DHT22;9815;52.334;20.890;2023-12-20T13:07:38;5.80;99.90
19359;DHT22;9815;52.334;20.890;2023-12-20T13:10:07;5.80;99.90
19359;DHT22;9815;52.334;20.890;2023-12-20T13:12:38;5.80;99.90
19359;DHT22;9815;52.334;20.890;2023-12-20T13:15:08;5.70;99.90
19359;DHT22;9815;52.334;20.890;2023-12-20T13:17:37;5.70;99.90
19359;DHT22;9815;52.334;20.890;2023-12-20T13:20:07;5.70;99.90
19359;DHT22;9815;52.334;20.890;2023-12-20T13:22:35;5.70;99.90
19359;DHT22;9815;52.334;20.890;2023-12-20T13:25:05;5.70;99.90
19359;DHT22;9815;52.334;20.890;2023-12-20T13:27:33;5.70;99.90
19359;DHT22;9815;52.334;20.890;2023-12-20T13:30:03;5.70;99.90
19359;DHT22;9815;52.334;20.890;2023-12-20T13:32:33;5.70;99.90
19359;DHT22;9815;52.334;20.890;2023-12-20T13:35:03;5.70;99.90
19359;DHT22;9815;52.334;20.890;2023-12-20T13:37:32;5.70;99.90
19359;DHT22;9815;52.334;20.890;2023-12-20T13:40:00;5.60;99.90
19359;DHT22;9815;52.334;20.890;2023-12-20T13:42:29;5.50;99.90
19359;DHT22;9815;52.334;20.890;2023-12-20T13:44:57;5.50;99.90
19359;DHT22;9815;52.334;20.890;2023-12-20T13:47:25;5.50;99.90
19359;DHT22;9815;52.334;20.890;2023-12-20T13:49:55;5.40;99.90
19359;DHT22;9815;52.334;20.890;2023-12-20T13:52:24;5.40;99.90
19359;DHT22;9815;52.334;20.890;2023-12-20T13:54:53;5.40;99.90
19359;DHT22;9815;52.334;20.890;2023-12-20T13:57:22;5.40;99.90
19359;DHT22;9815;52.334;20.890;2023-12-20T14:00:11;5.40;99.90
19359;DHT22;9815;52.334;20.890;2023-12-20T14:02:42;5.40;99.90
19359;DHT22;9815;52.334;20.890;2023-12-20T14:05:12;5.40;99.90
19359;DHT22;9815;52.334;20.890;2023-12-20T14:07:41;5.40;99.90
19359;DHT22;9815;52.334;20.890;2023-12-20T14:10:13;5.30;99.90
19359;DHT22;9815;52.334;20.890;2023-12-20T14:12:42;5.40;99.90
19359;DHT22;9815;52.334;20.890;2023-12-20T14:15:12;5.40;99.90
19359;DHT22;9815;52.334;20.890;2023-12-20T14:17:41;5.40;99.90
19359;DHT22;9815;52.334;20.890;2023-12-20T14:20:12;5.40;99.90
19359;DHT22;9815;52.334;20.890;2023-12-20T14:22:41;5.40;99.90
19359;DHT22;9815;52.334;20.890;2023-12-20T14:25:13;5.40;99.90
19359;DHT22;9815;52.334;20.890;2023-12-20T14:27:42;5.30;99.90
19359;DHT22;9815;52.334;20.890;2023-12-20T14:30:13;5.30;99.90
19359;DHT22;9815;52.334;20.890;2023-12-20T14:32:43;5.30;99.90
19359;DHT22;9815;52.334;20.890;2023-12-20T14:35:14;5.30;99.90
19359;DHT22;9815;52.334;20.890;2023-12-20T14:37:42;5.20;99.90
19359;DHT22;9815;52.334;20.890;2023-12-20T14:40:12;5.30;99.90
19359;DHT22;9815;52.334;20.890;2023-12-20T14:42:43;5.20;99.90
19359;DHT22;9815;52.334;20.890;2023-12-20T14:45:13;5.20;99.90
19359;DHT22;9815;52.334;20.890;2023-12-20T14:47:43;5.10;99.90
19359;DHT22;9815;52.334;20.890;2023-12-20T14:50:14;5.20;99.90
19359;DHT22;9815;52.334;20.890;2023-12-20T14:52:46;5.20;99.90
19359;DHT22;9815;52.334;20.890;2023-12-20T14:55:14;5.10;99.90
19359;DHT22;9815;52.334;20.890;2023-12-20T14:57:44;5.20;99.90
19359;DHT22;9815;52.334;20.890;2023-12-20T15:00:13;5.10;99.90
19359;DHT22;9815;52.334;20.890;2023-12-20T15:02:43;5.10;99.90
19359;DHT22;9815;52.334;20.890;2023-12-20T15:05:14;5.10;99.90
19359;DHT22;9815;52.334;20.890;2023-12-20T15:07:43;5.10;99.90
19359;DHT22;9815;52.334;20.890;2023-12-20T15:10:14;5.10;99.90
19359;DHT22;9815;52.334;20.890;2023-12-20T15:12:44;5.00;99.90
19359;DHT22;9815;52.334;20.890;2023-12-20T15:15:13;5.00;99.90
19359;DHT22;9815;52.334;20.890;2023-12-20T15:17:41;5.00;99.90
19359;DHT22;9815;52.334;20.890;2023-12-20T15:20:11;5.00;99.90
19359;DHT22;9815;52.334;20.890;2023-12-20T15:22:42;5.00;99.90
19359;DHT22;9815;52.334;20.890;2023-12-20T15:25:13;5.00;99.90
19359;DHT22;9815;52.334;20.890;2023-12-20T15:27:46;5.00;99.90
19359;DHT22;9815;52.334;20.890;2023-12-20T15:30:19;5.00;99.90
19359;DHT22;9815;52.334;20.890;2023-12-20T15:32:47;5.00;99.90
19359;DHT22;9815;52.334;20.890;2023-12-20T15:35:16;5.00;99.90
19359;DHT22;9815;52.334;20.890;2023-12-20T15:37:46;5.00;99.90
19359;DHT22;9815;52.334;20.890;2023-12-20T15:40:16;5.00;99.90
19359;DHT22;9815;52.334;20.890;2023-12-20T15:42:44;5.00;99.90
19359;DHT22;9815;52.334;20.890;2023-12-20T15:45:13;5.00;99.90
19359;DHT22;9815;52.334;20.890;2023-12-20T15:47:41;5.00;99.90
19359;DHT22;9815;52.334;20.890;2023-12-20T15:50:12;5.00;99.90
19359;DHT22;9815;52.334;20.890;2023-12-20T15:52:40;5.00;99.90
19359;DHT22;9815;52.334;20.890;2023-12-20T15:55:12;4.90;99.90
19359;DHT22;9815;52.334;20.890;2023-12-20T15:57:40;5.00;99.90
19359;DHT22;9815;52.334;20.890;2023-12-20T16:00:20;4.90;99.90